ADDS METAR Data INFO
IDs: Format: Raw Decoded Include TAF

Data at: 1133 UTC 29 May 2017

K82V 291115Z AUTO 10SM SCT120 05/03 A3024 RMK AO2
K82V 291055Z AUTO 10SM CLR 05/04 A3023 RMK AO2
K82V 291035Z AUTO 10SM CLR 06/03 A3023 RMK AO2
K82V 291015Z AUTO 10SM CLR 06/03 A3024 RMK AO2
K82V 290955Z AUTO 10SM CLR 05/04 A3024 RMK AO2
K82V 290935Z AUTO 28007KT 10SM SCT110 07/04 A3024 RMK AO2
K82V 290915Z AUTO 29009KT 10SM SCT095 BKN120 07/05 A3024 RMK AO2
K82V 290855Z AUTO 10SM BKN095 BKN120 06/05 A3024 RMK AO2
K82V 290835Z AUTO 10SM CLR 06/05 A3024 RMK AO2
K82V 290815Z AUTO 10SM SCT120 07/05 A3024 RMK AO2
K82V 290755Z AUTO 10SM CLR 06/05 A3024 RMK AO2
K82V 290735Z AUTO 10SM CLR 06/05 A3025 RMK AO2 PWINO
K82V 290720Z AUTO 28008KT 10SM SCT110 07/05 A3025 RMK AO2 PWINO
K82V 290655Z AUTO 32005KT 10SM BKN110 08/05 A3024 RMK AO2 PWINO
K82V 290635Z AUTO 33004KT 10SM CLR 08/05 A3024 RMK AO2 PWINO
K82V 290615Z AUTO 34005KT 10SM SCT055 SCT065 SCT075 08/06 A3025 RMK AO2 PWINO
K82V 290555Z AUTO 00000KT 10SM SCT055 BKN065 OVC110 10/06 A3024 RMK AO2 PWINO
K82V 290535Z AUTO 29012KT 10SM SCT110 07/05 A3028 RMK AO2 PWINO
K82V 290515Z AUTO 32007KT 10SM CLR 07/05 A3027 RMK AO2 PWINO
K82V 290455Z AUTO 32007KT 10SM CLR 07/05 A3027 RMK AO2 PWINO
K82V 290435Z AUTO 33007KT 10SM CLR 08/06 A3027 RMK AO2
K82V 290415Z AUTO 33011G15KT 10SM CLR 10/06 A3027 RMK AO2
K82V 290355Z AUTO 30006KT 10SM CLR 08/05 A3025 RMK AO2
K82V 290335Z AUTO 27003KT 10SM CLR 09/06 A3023 RMK AO2 PWINO
K82V 290315Z AUTO 26004KT 10SM SCT120 10/06 A3023 RMK AO2 PWINO
K82V 290255Z AUTO 24005KT 10SM SCT120 11/06 A3022 RMK AO2 PWINO
K82V 290235Z AUTO 31006KT 10SM SCT120 12/05 A3022 RMK AO2 PWINO
K82V 290215Z AUTO 30008KT 10SM SCT120 12/05 A3021 RMK AO2 LTG DSNT NW PWINO
K82V 290155Z AUTO 31005KT 10SM CLR 13/05 A3020 RMK AO2
K82V 290135Z AUTO 32003KT 10SM CLR 15/05 A3019 RMK AO2
K82V 290115Z AUTO 35005KT 10SM SCT120 15/05 A3018 RMK AO2 LTG DSNT W
K82V 290055Z AUTO 36010KT 10SM SCT095 SCT110 15/04 A3019 RMK AO2 LTG DSNT S PWINO
K82V 290035Z AUTO 36012G20KT 10SM SCT095 16/03 A3020 RMK AO2 PWINO
K82V 290015Z AUTO 36015G27KT 10SM SCT070 SCT085 SCT110 16/03 A3020 RMK AO2
K82V 282355Z AUTO 36020G28KT 10SM SCT085 SCT110 15/03 A3021 RMK AO2 PWINO
K82V 282335Z AUTO 35022G33KT 10SM SCT070 SCT085 BKN110 16/03 A3021 RMK AO2
K82V 282315Z AUTO 36007G14KT 10SM SCT070 SCT120 20/02 A3019 RMK AO2
K82V 282255Z AUTO 36007KT 10SM SCT080 SCT100 20/02 A3019 RMK AO2
K82V 282235Z AUTO 35012G22KT 10SM SCT080 SCT090 SCT120 21/02 A3020 RMK AO2
K82V 282215Z AUTO 30012G21KT 10SM SCT080 SCT120 21/00 A3020 RMK AO2
K82V 282155Z AUTO 33012G17KT 301V001 10SM CLR 20/01 A3020 RMK AO2
K82V 282135Z AUTO 35012G21KT 10SM SCT120 20/01 A3020 RMK AO2 LTG DSNT N
K82V 282115Z AUTO 35011G16KT 10SM SCT055 SCT080 BKN120 20/01 A3021 RMK AO2
K82V 282055Z AUTO 33012G20KT 301V001 10SM SCT047 BKN075 OVC120 17/00 A3022 RMK AO2
K82V 282035Z AUTO 33017G27KT 10SM SCT049 BKN090 OVC110 17/01 A3022 RMK AO2
K82V 282015Z AUTO 34017G26KT 10SM SCT080 BKN095 18/02 A3022 RMK AO2
K82V 281955Z AUTO 35012G17KT 10SM SCT075 BKN085 20/01 A3022 RMK AO2
K82V 281935Z AUTO 32010G17KT 301V001 10SM SCT075 SCT110 20/01 A3022 RMK AO2
K82V 281915Z AUTO 33014G19KT 301V011 10SM SCT075 BKN095 18/00 A3023 RMK AO2
K82V 281855Z AUTO 36009G18KT 10SM SCT075 SCT095 20/00 A3024 RMK AO2
K82V 281835Z AUTO 35010G19KT 10SM SCT085 19/00 A3024 RMK AO2
K82V 281815Z AUTO 34009G20KT 301V011 10SM CLR 19/00 A3024 RMK AO2
K82V 281755Z AUTO 32012KT 291V351 10SM SCT080 19/00 A3024 RMK AO2
K82V 281735Z AUTO 34010G22KT 301V001 10SM SCT070 SCT090 18/M01 A3025 RMK AO2
K82V 281715Z AUTO 33008G15KT 10SM SCT070 SCT090 18/00 A3025 RMK AO2
K82V 281655Z AUTO 34011G24KT 10SM CLR 18/00 A3025 RMK AO2
K82V 281635Z AUTO 32013G21KT 10SM CLR 18/00 A3025 RMK AO2
K82V 281615Z AUTO 31011G17KT 10SM CLR 17/01 A3025 RMK AO2
K82V 281555Z AUTO 33012G19KT 10SM CLR 17/00 A3025 RMK AO2
K82V 281535Z AUTO 32013G19KT 10SM CLR 17/01 A3025 RMK AO2
K82V 281515Z AUTO 32014G18KT 10SM CLR 16/01 A3025 RMK AO2
K82V 281455Z AUTO 31015G18KT 10SM CLR 16/01 A3025 RMK AO2
K82V 281435Z AUTO 31014G21KT 10SM CLR 15/01 A3024 RMK AO2
K82V 281415Z AUTO 30013G22KT 10SM CLR 14/02 A3024 RMK AO2 PWINO
K82V 281355Z AUTO 30014G21KT 10SM CLR 13/02 A3024 RMK AO2 PWINO
K82V 281335Z AUTO 29014G20KT 10SM CLR 11/02 A3023 RMK AO2 PWINO
K82V 281315Z AUTO 28011G15KT 10SM CLR 09/02 A3023 RMK AO2 PWINO
K82V 281255Z AUTO 28010KT 10SM CLR 07/02 A3023 RMK AO2 PWINO
K82V 281235Z AUTO 10SM CLR 06/02 A3023 RMK AO2 PWINO
K82V 281215Z AUTO 28009KT 10SM CLR 05/02 A3022 RMK AO2 PWINO
K82V 281155Z AUTO 28008KT 10SM CLR 04/02 A3022 RMK AO2 PWINO
K82V 281135Z AUTO 10SM CLR 04/02 A3022 RMK AO2 PWINO
K82V 281115Z AUTO 10SM CLR 03/02 A3021 RMK AO2 PWINO
K82V 281055Z AUTO 10SM CLR 03/02 A3021 RMK AO2 PWINO
K82V 281035Z AUTO 10SM CLR 02/02 A3021 RMK AO2 PWINO
K82V 281015Z AUTO 10SM CLR 02/01 A3021 RMK AO2 PWINO
K82V 280955Z AUTO 10SM CLR 03/02 A3021 RMK AO2 PWINO
K82V 280935Z AUTO 10SM CLR 03/02 A3021 RMK AO2 PWINO
K82V 280915Z AUTO 10SM SCT090 03/02 A3022 RMK AO2 PWINO
K82V 280855Z AUTO 10SM SCT090 03/02 A3022 RMK AO2 PWINO
K82V 280835Z AUTO 10SM BKN100 03/02 A3022 RMK AO2 PWINO
K82V 280815Z AUTO 10SM SCT100 03/02 A3022 RMK AO2 PWINO
K82V 280755Z AUTO 10SM CLR 03/02 A3023 RMK AO2 PWINO
K82V 280735Z AUTO 10SM CLR 03/02 A3023 RMK AO2 PWINO
K82V 280715Z AUTO 10SM CLR 03/02 A3023 RMK AO2 PWINO
K82V 280655Z AUTO 10SM CLR 03/02 A3023 RMK AO2 PWINO
K82V 280635Z AUTO 10SM CLR 03/02 A3022 RMK AO2 PWINO
K82V 280615Z AUTO 10SM CLR 03/02 A3022 RMK AO2 PWINO
K82V 280555Z AUTO 10SM CLR 03/03 A3022 RMK AO2 PWINO
K82V 280535Z AUTO 28008KT 10SM CLR 04/03 A3022 RMK AO2 PWINO
K82V 280515Z AUTO 10SM CLR 04/03 A3022 RMK AO2 PWINO
K82V 280455Z AUTO 10SM CLR 04/03 A3022 RMK AO2 PWINO
K82V 280435Z AUTO 28007KT 10SM CLR 03/03 A3022 RMK AO2 PWINO
K82V 280415Z AUTO 10SM CLR 05/03 A3021 RMK AO2 PWINO
K82V 280355Z AUTO 10SM CLR 05/02 A3021 RMK AO2 PWINO
K82V 280335Z AUTO 27005KT 10SM CLR 06/02 A3021 RMK AO2 PWINO
K82V 280315Z AUTO 28007KT 10SM CLR 06/02 A3020 RMK AO2 PWINO
K82V 280255Z AUTO 27005KT 10SM CLR 07/02 A3019 RMK AO2 PWINO
K82V 280235Z AUTO 31005KT 10SM CLR 10/02 A3019 RMK AO2 PWINO
K82V 280215Z AUTO 32006KT 10SM CLR 10/02 A3019 RMK AO2 PWINO
K82V 280155Z AUTO 32007KT 10SM CLR 12/03 A3018 RMK AO2 PWINO
K82V 280135Z AUTO 32008KT 10SM CLR 13/02 A3018 RMK AO2 PWINO
K82V 280115Z AUTO 34010KT 301V001 10SM CLR 14/02 A3017 RMK AO2
K82V 280055Z AUTO 33009KT 10SM CLR 15/02 A3017 RMK AO2
K82V 280035Z AUTO 34010KT 10SM CLR 15/02 A3017 RMK AO2
K82V 280015Z AUTO 34011G17KT 10SM CLR 15/02 A3017 RMK AO2
K82V 272355Z AUTO 35011G14KT 10SM CLR 15/02 A3017 RMK AO2
K82V 272335Z AUTO 33010G17KT 10SM CLR 15/03 A3017 RMK AO2


Page loaded:  11:33 UTC  |   04:33 AM Pacific  |   05:33 AM Mountain  |   06:33 AM Central  |   07:33 AM Eastern

 

ADVISORIES

FORECASTS

FORECASTS

OBSERVATIONS

USER TOOLS

ABOUT US